Terminal Aerodrome Forecast
Issued by NWS

Home | Current Version | Previous Version | Text Only | Print | Product List | Glossary Off
Versions: 1 2 3 4 5 6 7 8 9 10 11 12 13 14 15 16

584
FTUS43 KICT 160523
TAFHUT
TAF
KHUT 160523Z 1606/1706 20009KT P6SM SKC
     FM161600 19012KT P6SM SKC
     FM161900 19016G24KT P6SM SKC
     FM170300 17010KT P6SM SCT250=

USA.gov is the U.S. government's official web portal to all federal, state and local government web resources and services.